^^
Garrymore Weather Station Historical Data
 
Daily Summary for December 12, 2019 Units:  Metric    English   Both
Daily Weekly Monthly Yearly Custom
  Current: High: Low: Average:
Temperature: 7 °C 7 °C 2 °C 4 °C
Dew Point: 6 °C 6 °C -1 °C 2.5 °C
Humidity: 93% 93% 69% 91%
Wind Speed: 10km/h 24km/h 0km/h 6.1km/h
Wind Gust: 16km/h 93km/h - -
WindNW - - South
Pressure: 985.2 hPa 1000.61 hPa 985.1 hPa -
Precipitation: 1.19 mm      
Historical Graphs
 
 
Tabular Data for December 12, 2019
Time Temperature Dew Point Pressure Wind Wind Speed Wind Gust Humidity Rainfall Rate (Hourly) solar
00:00 2 °C -1 °C 1000.51 hPa S 11 km/h 24 km/h 82% 0 mm 0 W/m2
00:05 2 °C -1 °C 1000.61 hPa S 10 km/h 19 km/h 82% 0 mm 0 W/m2
00:10 2 °C -1 °C 1000.34 hPa S 10 km/h 14 km/h 82% 0 mm 0 W/m2
00:15 2 °C -1 °C 1000.31 hPa SSE 10 km/h 16 km/h 82% 0 mm 0 W/m2
00:20 2 °C -1 °C 999.9 hPa S 10 km/h 23 km/h 82% 0 mm 0 W/m2
00:25 2 °C -1 °C 999.9 hPa SSE 11 km/h 18 km/h 82% 0 mm 0 W/m2
00:30 2 °C -1 °C 999.7 hPa SSE 16 km/h 24 km/h 83% 0 mm 0 W/m2
00:35 2 °C -1 °C 999.7 hPa S 13 km/h 24 km/h 83% 0 mm 0 W/m2
00:40 2 °C -1 °C 999.22 hPa S 13 km/h 24 km/h 83% 0 mm 0 W/m2
00:45 2 °C -1 °C 999.12 hPa S 5 km/h 16 km/h 83% 0 mm 0 W/m2
00:50 2 °C -1 °C 999.09 hPa SSE 5 km/h 14 km/h 84% 0 mm 0 W/m2
00:55 2 °C -1 °C 999.02 hPa SSE 10 km/h 19 km/h 84% 0 mm 0 W/m2
01:00 2 °C -1 °C 998.61 hPa S 13 km/h 24 km/h 84% 0 mm 0 W/m2
01:05 2 °C -1 °C 998.41 hPa S 19 km/h 27 km/h 84% 0 mm 0 W/m2
01:10 2 °C 0 °C 998.31 hPa S 14 km/h 27 km/h 85% 0 mm 0 W/m2
01:15 2 °C 0 °C 998.21 hPa S 16 km/h 27 km/h 85% 0 mm 0 W/m2
01:20 2 °C 0 °C 997.9 hPa S 11 km/h 26 km/h 85% 0 mm 0 W/m2
01:25 2 °C 0 °C 997.9 hPa S 5 km/h 16 km/h 86% 0 mm 0 W/m2
01:30 2 °C 0 °C 997.7 hPa SSE 3 km/h 11 km/h 86% 0 mm 0 W/m2
01:35 2 °C 0 °C 997.33 hPa SE 3 km/h 16 km/h 86% 0 mm 0 W/m2
01:40 2 °C 0 °C 997.29 hPa SSE 8 km/h 13 km/h 86% 0 mm 0 W/m2
01:45 2 °C 0 °C 996.99 hPa SSE 3 km/h 13 km/h 86% 0 mm 0 W/m2
01:50 2 °C 1 °C 996.82 hPa SSE 8 km/h 13 km/h 90% 0 mm 0 W/m2
01:55 2 °C 1 °C 996.72 hPa SSE 5 km/h 13 km/h 91% 0 mm 0 W/m2
02:00 2 °C 1 °C 996.58 hPa S 10 km/h 14 km/h 91% 0 mm 0 W/m2
02:05 2 °C 1 °C 996.31 hPa S 10 km/h 14 km/h 91% 0 mm 0 W/m2
02:10 2 °C 1 °C 995.9 hPa S 11 km/h 16 km/h 91% 0 mm 0 W/m2
02:15 2 °C 1 °C 995.7 hPa S 10 km/h 14 km/h 91% 0 mm 0 W/m2
02:20 2 °C 1 °C 995.7 hPa S 5 km/h 14 km/h 91% 0 mm 0 W/m2
02:25 2 °C 1 °C 995.7 hPa S 8 km/h 10 km/h 91% 0 mm 0 W/m2
02:30 2 °C 1 °C 995.5 hPa S 5 km/h 10 km/h 91% 0 mm 0 W/m2
02:35 2 °C 1 °C 995.12 hPa SSE 3 km/h 10 km/h 92% 0 mm 0 W/m2
02:40 2 °C 1 °C 994.92 hPa SE 3 km/h 13 km/h 92% 0 mm 0 W/m2
02:45 2 °C 1 °C 994.89 hPa SE 3 km/h 8 km/h 92% 0 mm 0 W/m2
02:50 2 °C 1 °C 994.99 hPa SE 5 km/h 10 km/h 92% 0 mm 0 W/m2
02:55 2 °C 1 °C 994.51 hPa ESE 2 km/h 8 km/h 92% 0 mm 0 W/m2
03:00 2 °C 1 °C 994.51 hPa E 2 km/h 5 km/h 92% 0 mm 0 W/m2
03:05 2 °C 1 °C 994.31 hPa ENE 2 km/h 3 km/h 92% 0 mm 0 W/m2
03:10 3 °C 1 °C 994.11 hPa NE 2 km/h 3 km/h 92% 0 mm 0 W/m2
03:15 3 °C 1 °C 994.11 hPa Calm   6 km/h 92% 0 mm 0 W/m2
03:20 3 °C 1 °C 993.91 hPa SE 2 km/h 5 km/h 92% 0 mm 0 W/m2
03:25 3 °C 1 °C 993.63 hPa SE 3 km/h 6 km/h 92% 0 mm 0 W/m2
03:30 3 °C 1 °C 993.5 hPa ESE 5 km/h 8 km/h 92% 0 mm 0 W/m2
03:35 3 °C 1 °C 993.4 hPa SE 2 km/h 8 km/h 92% 0 mm 0 W/m2
03:40 3 °C 2 °C 993.19 hPa SE 5 km/h 11 km/h 92% 0 mm 0 W/m2
03:45 3 °C 2 °C 992.92 hPa SE 8 km/h 11 km/h 92% 0 mm 0 W/m2
03:50 3 °C 2 °C 992.89 hPa SSE 5 km/h 10 km/h 91% 0 mm 0 W/m2
03:55 3 °C 2 °C 992.69 hPa S 3 km/h 5 km/h 91% 0 mm 0 W/m2
04:00 3 °C 2 °C 992.38 hPa SE 2 km/h 5 km/h 91% 0 mm 0 W/m2
04:05 3 °C 2 °C 992.31 hPa ESE 2 km/h 5 km/h 91% 0 mm 0 W/m2
04:10 3 °C 2 °C 992.18 hPa Calm   5 km/h 91% 0 mm 0 W/m2
04:15 3 °C 2 °C 992.01 hPa SE 2 km/h 3 km/h 91% 0 mm 0 W/m2
04:20 3 °C 2 °C 991.6 hPa SE 2 km/h 3 km/h 91% 0 mm 0 W/m2
04:25 3 °C 2 °C 991.6 hPa SE 2 km/h 3 km/h 91% 0 mm 0 W/m2
04:30 3 °C 2 °C 991.2 hPa ESE 2 km/h 3 km/h 92% 0 mm 0 W/m2
04:35 3 °C 2 °C 991.09 hPa ESE 5 km/h 10 km/h 92% 0 mm 0 W/m2
04:40 3 °C 2 °C 990.99 hPa ESE 3 km/h 10 km/h 92% 0 mm 0 W/m2
04:45 4 °C 3 °C 990.72 hPa ESE 5 km/h 10 km/h 92% 0 mm 0 W/m2
04:50 4 °C 3 °C 990.69 hPa SE 2 km/h 10 km/h 92% 0 mm 0 W/m2
04:55 4 °C 3 °C 990.42 hPa SSE 2 km/h 6 km/h 91% 0 mm 0 W/m2
05:00 4 °C 3 °C 990.48 hPa SSE 3 km/h 10 km/h 91% 0 mm 0 W/m2
05:05 4 °C 3 °C 990.21 hPa SE 2 km/h 5 km/h 91% 0 mm 0 W/m2
05:10 4 °C 3 °C 990.01 hPa Calm   5 km/h 91% 0 mm 0 W/m2
05:15 4 °C 3 °C 989.91 hPa ESE 2 km/h 5 km/h 91% 0 mm 0 W/m2
05:20 4 °C 3 °C 989.71 hPa SE 2 km/h 5 km/h 91% 0 mm 0 W/m2
05:25 4 °C -1 °C 989.57 hPa SE 24 km/h 93 km/h 69% 0 mm 0 W/m2
05:30 4 °C 3 °C 989.5 hPa Calm   5 km/h 91% 0 mm 0 W/m2
05:35 4 °C 3 °C 989.4 hPa ENE 2 km/h 3 km/h 91% 0 mm 0 W/m2
05:40 4 °C 3 °C 988.93 hPa ENE 2 km/h 3 km/h 91% 0 mm 0 W/m2
05:45 4 °C 3 °C 989.1 hPa E 2 km/h 5 km/h 91% 0 mm 0 W/m2
05:50 5 °C 3 °C 988.89 hPa SSE 3 km/h 5 km/h 92% 0 mm 0 W/m2
05:55 5 °C 3 °C 988.69 hPa Calm   5 km/h 92% 0.3 mm 0 W/m2
06:00 5 °C 3 °C 988.69 hPa Calm   3 km/h 92% 0 mm 0 W/m2
06:05 5 °C 3 °C 988.62 hPa E 2 km/h 6 km/h 92% 0 mm 0 W/m2
06:10 5 °C 4 °C 988.42 hPa SSE 8 km/h 10 km/h 92% 0.3 mm 0 W/m2
06:15 5 °C 4 °C 988.32 hPa SSE 5 km/h 14 km/h 91% 0 mm 0 W/m2
06:20 5 °C 4 °C 988.18 hPa S 13 km/h 18 km/h 91% 0 mm 0 W/m2
06:25 5 °C 4 °C 988.28 hPa SSE 13 km/h 18 km/h 92% 0 mm 0 W/m2
06:30 5 °C 4 °C 988.01 hPa SSE 13 km/h 21 km/h 92% 0 mm 0 W/m2
06:35 5 °C 4 °C 988.08 hPa SSE 13 km/h 19 km/h 92% 0.3 mm 0 W/m2
06:40 5 °C 4 °C 987.98 hPa S 14 km/h 21 km/h 92% 0 mm 0 W/m2
06:45 5 °C 4 °C 987.71 hPa S 10 km/h 21 km/h 92% 0 mm 0 W/m2
06:50 5 °C 4 °C 987.81 hPa S 11 km/h 16 km/h 92% 0 mm 0 W/m2
06:55 5 °C 4 °C 987.71 hPa S 10 km/h 14 km/h 92% 0 mm 0 W/m2
07:00 5 °C 4 °C 987.5 hPa S 5 km/h 13 km/h 92% 0 mm 0 W/m2
07:05 5 °C 4 °C 987.61 hPa SSW 5 km/h 10 km/h 92% 0 mm 0 W/m2
07:10 5 °C 4 °C 987.5 hPa SW 5 km/h 13 km/h 92% 0 mm 0 W/m2
07:15 5 °C 4 °C 987.4 hPa S 11 km/h 14 km/h 92% 0 mm 0 W/m2
07:20 5 °C 4 °C 987.4 hPa S 10 km/h 14 km/h 92% 0 mm 0 W/m2
07:25 5 °C 4 °C 987.2 hPa S 3 km/h 13 km/h 92% 0 mm 0 W/m2
07:30 5 °C 4 °C 987.3 hPa S 5 km/h 11 km/h 92% 0 mm 0 W/m2
07:35 5 °C 4 °C 987.1 hPa SSE 5 km/h 11 km/h 92% 0 mm 0 W/m2
07:40 5 °C 4 °C 987.2 hPa SSE 5 km/h 10 km/h 92% 0 mm 0 W/m2
07:45 5 °C 4 °C 987 hPa SSE 3 km/h 10 km/h 92% 0 mm 0 W/m2
07:50 5 °C 4 °C 986.79 hPa SE 3 km/h 6 km/h 92% 0 mm 0 W/m2
07:55 5 °C 4 °C 986.9 hPa SSE 5 km/h 10 km/h 92% 0 mm 0 W/m2
08:00 5 °C 4 °C 986.79 hPa S 5 km/h 10 km/h 93% 0 mm 0 W/m2
08:05 5 °C 4 °C 986.62 hPa S 8 km/h 11 km/h 93% 0 mm 0 W/m2
08:10 5 °C 4 °C 986.42 hPa S 5 km/h 11 km/h 93% 0 mm 0 W/m2
08:15 5 °C 4 °C 986.49 hPa S 5 km/h 11 km/h 93% 0 mm 0 W/m2
08:20 5 °C 4 °C 986.42 hPa S 5 km/h 13 km/h 93% 0 mm 0 W/m2
08:25 5 °C 4 °C 986.29 hPa S 5 km/h 10 km/h 93% 0 mm 0 W/m2
08:30 5 °C 4 °C 986.39 hPa S 8 km/h 10 km/h 93% 0 mm 0 W/m2
08:35 5 °C 4 °C 986.12 hPa S 8 km/h 11 km/h 93% 0 mm 0 W/m2
08:40 5 °C 4 °C 986.12 hPa S 10 km/h 13 km/h 93% 0 mm 0 W/m2
08:45 5 °C 4 °C 986.01 hPa S 11 km/h 14 km/h 93% 0 mm 0 W/m2
08:50 5 °C 4 °C 986.08 hPa S 5 km/h 14 km/h 93% 0 mm 0 W/m2
08:55 5 °C 4 °C 986.01 hPa S 5 km/h 10 km/h 93% 0 mm 0 W/m2
09:00 5 °C 4 °C 985.91 hPa S 3 km/h 8 km/h 93% 0 mm 0 W/m2
09:05 5 °C 4 °C 985.91 hPa S 3 km/h 6 km/h 93% 0 mm 0 W/m2
09:10 5 °C 4 °C 985.81 hPa SSW 5 km/h 10 km/h 93% 0 mm 0 W/m2
09:15 5 °C 4 °C 985.81 hPa S 2 km/h 10 km/h 93% 0 mm 0 W/m2
09:20 6 °C 4 °C 985.71 hPa S 5 km/h 8 km/h 93% 0 mm 0 W/m2
09:25 6 °C 4 °C 985.71 hPa SSW 3 km/h 8 km/h 93% 0 mm 0 W/m2
09:30 6 °C 4 °C 985.61 hPa SSW 5 km/h 8 km/h 93% 0 mm 0 W/m2
09:35 6 °C 5 °C 985.61 hPa SSW 5 km/h 10 km/h 93% 0 mm 0 W/m2
09:40 6 °C 5 °C 985.41 hPa SW 3 km/h 10 km/h 93% 0 mm 0 W/m2
09:45 6 °C 5 °C 985.44 hPa SW 5 km/h 13 km/h 93% 0 mm 0 W/m2
09:50 6 °C 5 °C 985.51 hPa SW 5 km/h 13 km/h 93% 0 mm 0 W/m2
09:55 7 °C 6 °C 985.51 hPa W 5 km/h 13 km/h 93% 0 mm 0 W/m2
10:00 7 °C 6 °C 985.57 hPa W 5 km/h 18 km/h 93% 0 mm 0 W/m2
10:05 7 °C 6 °C 985.51 hPa WSW 5 km/h 13 km/h 93% 0 mm 0 W/m2
10:10 7 °C 6 °C 985.51 hPa SSW 3 km/h 10 km/h 93% 0 mm 0 W/m2
10:15 7 °C 6 °C 985.1 hPa SSW 5 km/h 11 km/h 93% 0 mm 0 W/m2
10:20 7 °C 6 °C 985.3 hPa SSW 11 km/h 19 km/h 93% 0.3 mm 0 W/m2
10:25 7 °C 6 °C 985.3 hPa NNW 10 km/h 19 km/h 93% 0 mm 0 W/m2
10:30 7 °C 6 °C 985.41 hPa WNW 5 km/h 23 km/h 93% 0 mm 0 W/m2
10:35 7 °C 6 °C 985.57 hPa WNW 10 km/h 24 km/h 93% 0 mm 0 W/m2
10:40 7 °C 6 °C 985.41 hPa NW 5 km/h 18 km/h 93% 0 mm 0 W/m2
10:45 7 °C 6 °C 985.2 hPa NW 10 km/h 16 km/h 93% 0 mm 0 W/m2
Garrymore Weather Station, Geashill, Tullamore, Offaly, Ireland
Compliments of Weather Underground - 2 mb